createdAt,value
2022-08-04T00:01:51.596Z,41.71
2022-08-04T00:04:51.316Z,41.81
2022-08-04T00:07:44.143Z,42.67
2022-08-04T00:10:11.200Z,41.18
2022-08-04T00:12:42.586Z,42.13
2022-08-04T00:15:15.004Z,42.24
2022-08-04T00:17:49.924Z,41.51
2022-08-04T00:20:18.867Z,41.31
2022-08-04T00:22:46.516Z,41.93
2022-08-04T00:25:13.338Z,42.95
2022-08-04T00:27:40.100Z,43.19
2022-08-04T00:30:07.540Z,41.60
2022-08-04T00:32:34.928Z,42.62
2022-08-04T00:35:01.915Z,42.84
2022-08-04T00:37:28.994Z,42.04
2022-08-04T00:39:56.414Z,42.80
2022-08-04T00:42:23.334Z,42.77
2022-08-04T00:45:00.003Z,42.36
2022-08-04T00:47:30.036Z,42.62
2022-08-04T00:49:56.985Z,42.65
2022-08-04T00:52:42.877Z,43.11
2022-08-04T00:55:12.930Z,43.03
2022-08-04T00:57:49.309Z,43.57
2022-08-04T01:00:18.586Z,43.84
2022-08-04T01:02:51.661Z,43.58
2022-08-04T01:05:22.067Z,44.21
2022-08-04T01:07:58.178Z,44.17
2022-08-04T01:10:29.088Z,44.12
2022-08-04T01:13:12.815Z,44.10
2022-08-04T01:15:56.534Z,44.42
2022-08-04T01:18:37.409Z,44.94
2022-08-04T01:21:23.667Z,45.51
2022-08-04T01:23:51.079Z,45.49
2022-08-04T01:26:42.705Z,45.33
2022-08-04T01:29:18.569Z,45.74
2022-08-04T01:31:54.928Z,45.68
2022-08-04T01:34:22.876Z,46.03
2022-08-04T01:37:00.799Z,45.46
2022-08-04T01:39:43.226Z,45.47
2022-08-04T01:42:10.924Z,45.79
2022-08-04T01:44:40.925Z,45.85
2022-08-04T01:47:08.099Z,45.46
2022-08-04T01:49:40.932Z,45.55
2022-08-04T01:52:08.883Z,45.46
2022-08-04T01:54:38.127Z,45.42
2022-08-04T01:57:38.347Z,45.52
2022-08-04T01:59:52.472Z,45.36
2022-08-04T02:02:26.898Z,45.58
2022-08-04T02:04:53.943Z,45.55
2022-08-04T02:07:27.548Z,45.93
2022-08-04T02:10:14.171Z,46.21
2022-08-04T02:12:56.435Z,46.18
2022-08-04T02:15:26.245Z,45.55
2022-08-04T02:18:00.591Z,46.64
2022-08-04T02:20:34.985Z,46.40
2022-08-04T02:23:04.377Z,46.27
2022-08-04T02:25:33.674Z,45.63
2022-08-04T02:28:01.084Z,46.59
2022-08-04T02:30:34.502Z,46.84
2022-08-04T02:33:02.639Z,46.60
2022-08-04T02:35:29.605Z,46.90
2022-08-04T02:38:01.751Z,46.84
2022-08-04T02:40:29.117Z,46.95
2022-08-04T02:42:55.899Z,47.42
2022-08-04T02:45:22.595Z,47.03
2022-08-04T02:48:23.589Z,47.87
2022-08-04T02:50:36.559Z,47.60
2022-08-04T02:53:03.951Z,47.88
2022-08-04T02:55:36.791Z,48.43
2022-08-04T02:58:04.534Z,48.23
2022-08-04T03:00:32.417Z,48.19
2022-08-04T03:03:06.256Z,47.71
2022-08-04T03:06:00.563Z,47.95
2022-08-04T03:08:25.613Z,48.36
2022-08-04T03:11:06.009Z,48.46
2022-08-04T03:13:36.990Z,48.19
2022-08-04T03:16:03.995Z,48.52
2022-08-04T03:18:50.134Z,48.90
2022-08-04T03:21:17.172Z,49.03
2022-08-04T03:23:54.878Z,50.23
2022-08-04T03:26:41.150Z,49.24
2022-08-04T03:29:35.932Z,49.94
2022-08-04T03:32:04.206Z,48.74
2022-08-04T03:34:41.320Z,49.41
2022-08-04T03:37:08.991Z,49.62
2022-08-04T03:39:51.047Z,49.30
2022-08-04T03:42:24.770Z,49.70
2022-08-04T03:45:23.177Z,49.92
2022-08-04T03:47:51.111Z,50.35
2022-08-04T03:50:27.626Z,50.81
2022-08-04T03:53:13.696Z,50.77
2022-08-04T03:56:05.937Z,50.40
2022-08-04T03:58:55.092Z,51.28
2022-08-04T04:02:00.948Z,51.27
2022-08-04T04:04:33.718Z,51.33
2022-08-04T04:07:03.531Z,51.83
2022-08-04T04:09:56.874Z,50.68
2022-08-04T04:12:39.514Z,51.36
2022-08-04T04:15:12.680Z,51.08
2022-08-04T04:17:47.166Z,50.73
2022-08-04T04:20:26.926Z,50.64
2022-08-04T04:23:12.558Z,51.79
2022-08-04T04:25:51.074Z,51.96
2022-08-04T04:28:46.088Z,52.07
2022-08-04T04:31:24.698Z,51.76
2022-08-04T04:34:23.932Z,51.95
2022-08-04T04:36:53.851Z,51.78
2022-08-04T04:39:26.609Z,51.83
2022-08-04T04:41:57.982Z,52.29
2022-08-04T04:44:31.013Z,52.20
2022-08-04T04:47:19.216Z,51.76
2022-08-04T04:50:15.859Z,51.61
2022-08-04T04:52:48.046Z,51.12
2022-08-04T04:55:21.728Z,51.26
2022-08-04T04:57:54.627Z,51.30
2022-08-04T05:00:23.680Z,51.49
2022-08-04T05:03:07.293Z,51.27
2022-08-04T05:05:38.587Z,50.70
2022-08-04T05:08:43.576Z,50.99
2022-08-04T05:11:20.212Z,51.61
2022-08-04T05:14:38.861Z,51.71
2022-08-04T05:16:36.522Z,51.58
2022-08-04T05:19:09.773Z,51.89
2022-08-04T05:21:36.470Z,51.72
2022-08-04T05:24:05.257Z,50.96
2022-08-04T05:26:33.065Z,49.43
2022-08-04T05:29:02.801Z,47.95
2022-08-04T05:31:32.268Z,47.24
2022-08-04T05:34:00.984Z,46.83
2022-08-04T05:36:41.066Z,46.17
2022-08-04T05:39:14.509Z,45.08
2022-08-04T05:41:45.369Z,44.69
2022-08-04T05:44:18.896Z,44.07
2022-08-04T05:46:54.142Z,42.77
2022-08-04T05:49:22.427Z,42.37
2022-08-04T05:51:49.173Z,40.69
2022-08-04T05:54:17.228Z,41.90
2022-08-04T05:56:44.388Z,41.29
2022-08-04T05:59:11.244Z,39.89
2022-08-04T06:01:56.227Z,40.33
2022-08-04T06:04:43.178Z,40.72
2022-08-04T06:07:11.356Z,39.95
2022-08-04T06:09:38.371Z,40.11
2022-08-04T06:12:07.416Z,40.17
2022-08-04T06:14:44.057Z,39.50
2022-08-04T06:18:32.051Z,39.32
2022-08-04T06:20:17.640Z,39.70
2022-08-04T06:22:48.552Z,38.61
2022-08-04T06:25:16.199Z,37.71
2022-08-04T06:27:42.930Z,38.36
2022-08-04T06:30:14.409Z,39.00
2022-08-04T06:32:48.848Z,37.69
2022-08-04T06:35:17.787Z,37.05
2022-08-04T06:37:45.865Z,37.34
2022-08-04T06:40:29.715Z,36.86
2022-08-04T06:42:59.358Z,36.61
2022-08-04T06:45:26.153Z,36.14
2022-08-04T06:47:52.915Z,35.41
2022-08-04T06:51:25.681Z,33.46
2022-08-04T06:53:06.731Z,33.40
2022-08-04T06:55:33.739Z,32.33
2022-08-04T06:58:03.032Z,32.91
2022-08-04T07:00:30.895Z,31.34
2022-08-04T07:02:58.046Z,32.13
2022-08-04T07:05:24.807Z,30.70
2022-08-04T07:07:56.526Z,31.14
2022-08-04T07:10:26.252Z,31.22
2022-08-04T07:12:54.106Z,30.02
2022-08-04T07:15:21.040Z,31.03
2022-08-04T07:17:50.253Z,31.70
2022-08-04T07:20:34.672Z,30.52
2022-08-04T07:23:06.648Z,30.71
2022-08-04T07:26:00.537Z,29.53
2022-08-04T07:28:21.342Z,28.62
2022-08-04T07:30:48.595Z,27.92
2022-08-04T07:33:18.550Z,28.20
2022-08-04T07:36:05.578Z,29.43
2022-08-04T07:38:33.025Z,28.14
2022-08-04T07:41:00.172Z,26.97
2022-08-04T07:43:27.677Z,26.80
2022-08-04T07:45:54.391Z,25.65
2022-08-04T07:48:23.239Z,27.39
2022-08-04T07:50:50.498Z,25.82
2022-08-04T07:53:54.398Z,26.30
2022-08-04T07:56:04.519Z,25.89
2022-08-04T07:58:31.166Z,25.93
2022-08-04T08:00:58.176Z,24.50
2022-08-04T08:03:25.578Z,24.74
2022-08-04T08:05:54.565Z,24.63
2022-08-04T08:08:40.055Z,23.80
2022-08-04T08:11:07.306Z,25.63
2022-08-04T08:13:34.179Z,25.82
2022-08-04T08:16:01.350Z,24.99
2022-08-04T08:18:28.043Z,23.47
2022-08-04T08:20:55.459Z,24.56
2022-08-04T08:23:24.823Z,23.45
2022-08-04T08:25:51.800Z,23.81
2022-08-04T08:28:18.542Z,23.47
2022-08-04T08:30:45.499Z,23.45
2022-08-04T08:33:19.686Z,23.30
2022-08-04T08:35:52.917Z,22.58
2022-08-04T08:38:25.160Z,23.77
2022-08-04T08:41:18.693Z,23.35
2022-08-04T08:44:05.905Z,22.80
2022-08-04T08:46:49.890Z,23.30
2022-08-04T08:50:00.236Z,24.34
2022-08-04T08:52:13.356Z,25.00
2022-08-04T08:54:53.059Z,22.33
2022-08-04T08:57:32.305Z,23.03
2022-08-04T09:00:10.410Z,22.53
2022-08-04T09:03:04.631Z,22.64
2022-08-04T09:05:50.527Z,23.18
2022-08-04T09:08:36.275Z,23.40
2022-08-04T09:11:02.955Z,21.79
2022-08-04T09:13:30.763Z,23.54
2022-08-04T09:15:59.951Z,21.14
2022-08-04T09:18:34.737Z,23.38
2022-08-04T09:21:25.113Z,23.15
2022-08-04T09:23:59.351Z,22.79
2022-08-04T09:26:26.313Z,23.53
2022-08-04T09:29:01.926Z,21.59
2022-08-04T09:31:51.771Z,21.31
2022-08-04T09:34:26.912Z,20.77
2022-08-04T09:36:56.993Z,21.72
2022-08-04T09:39:29.700Z,21.18
2022-08-04T09:42:10.100Z,22.83
2022-08-04T09:44:53.097Z,22.23
2022-08-04T09:47:39.329Z,20.73
2022-08-04T09:50:09.356Z,22.25
2022-08-04T09:52:56.554Z,21.87
2022-08-04T09:55:53.529Z,22.39
2022-08-04T09:58:24.644Z,21.16
2022-08-04T10:00:55.602Z,20.94
2022-08-04T10:03:23.628Z,20.92
2022-08-04T10:05:53.360Z,20.20
2022-08-04T10:08:30.563Z,21.04
2022-08-04T10:11:17.102Z,20.86
2022-08-04T10:13:59.201Z,21.94
2022-08-04T10:16:38.400Z,20.76
2022-08-04T10:19:15.718Z,20.96
2022-08-04T10:21:58.962Z,21.18
2022-08-04T10:24:47.752Z,21.83
2022-08-04T10:27:23.002Z,23.26
2022-08-04T10:29:49.828Z,20.26
2022-08-04T10:32:36.954Z,21.02
2022-08-04T10:35:10.151Z,22.86
2022-08-04T10:37:56.548Z,22.86
2022-08-04T10:40:40.972Z,22.93
2022-08-04T10:43:21.988Z,21.81
2022-08-04T10:45:51.252Z,21.24
2022-08-04T10:48:36.806Z,21.94
2022-08-04T10:51:03.538Z,20.05
2022-08-04T10:53:31.072Z,21.76
2022-08-04T10:56:18.034Z,21.24
2022-08-04T10:58:51.152Z,20.98
2022-08-04T11:01:59.439Z,19.78
2022-08-04T11:04:28.038Z,19.29
2022-08-04T11:06:55.489Z,19.93
2022-08-04T11:09:22.474Z,20.08
2022-08-04T11:12:02.360Z,19.94
2022-08-04T11:14:32.349Z,21.29
2022-08-04T11:16:59.536Z,21.04
2022-08-04T11:19:49.959Z,21.03
2022-08-04T11:22:22.741Z,20.03
2022-08-04T11:24:52.228Z,21.36
2022-08-04T11:27:26.211Z,20.44
2022-08-04T11:30:04.837Z,20.45
2022-08-04T11:32:36.418Z,19.21
2022-08-04T11:35:04.626Z,19.21
2022-08-04T11:37:47.920Z,19.95
2022-08-04T11:40:25.473Z,18.99
2022-08-04T11:42:54.004Z,19.74
2022-08-04T11:45:24.813Z,19.55
2022-08-04T11:47:53.964Z,19.01
2022-08-04T11:50:22.639Z,19.24
2022-08-04T11:52:49.886Z,19.18
2022-08-04T11:55:17.376Z,20.51
2022-08-04T11:57:45.123Z,20.75
2022-08-04T12:00:20.982Z,19.95
2022-08-04T12:03:06.881Z,21.77
2022-08-04T12:05:46.763Z,20.36
2022-08-04T12:08:20.192Z,20.06
2022-08-04T12:10:53.134Z,21.84
2022-08-04T12:13:40.756Z,20.00
2022-08-04T12:16:10.915Z,18.89
2022-08-04T12:18:39.536Z,18.99
2022-08-04T12:21:11.662Z,19.13
2022-08-04T12:23:43.752Z,19.97
2022-08-04T12:26:15.504Z,19.56
2022-08-04T12:29:09.003Z,20.48
2022-08-04T12:31:31.478Z,19.32
2022-08-04T12:34:04.281Z,19.79
2022-08-04T12:36:55.552Z,19.48
2022-08-04T12:39:23.325Z,21.77
2022-08-04T12:42:05.048Z,19.92
2022-08-04T12:44:37.387Z,18.65
2022-08-04T12:47:27.071Z,19.07
2022-08-04T12:50:03.723Z,19.48
2022-08-04T12:55:18.781Z,19.45
2022-08-04T12:57:45.584Z,20.46
2022-08-04T13:00:12.583Z,19.14
2022-08-04T13:02:42.490Z,18.48
2022-08-04T13:05:09.538Z,21.25
2022-08-04T13:07:54.002Z,21.96
2022-08-04T13:10:23.410Z,20.27
2022-08-04T13:12:59.406Z,20.57
2022-08-04T13:15:28.730Z,21.45
2022-08-04T13:17:57.204Z,20.66
2022-08-04T13:20:30.025Z,20.24
2022-08-04T13:23:08.900Z,21.16
2022-08-04T13:26:43.703Z,21.04
2022-08-04T13:28:30.293Z,21.28
2022-08-04T13:30:59.594Z,20.97
2022-08-04T13:33:30.290Z,20.76
2022-08-04T13:35:59.339Z,21.07
2022-08-04T13:38:26.231Z,22.06
2022-08-04T13:40:54.299Z,21.86
2022-08-04T13:44:16.151Z,21.82
2022-08-04T13:46:34.214Z,21.60
2022-08-04T13:49:28.249Z,20.99
2022-08-04T13:52:00.265Z,21.62
2022-08-04T13:54:44.027Z,20.46
2022-08-04T13:57:24.111Z,21.19
2022-08-04T13:59:55.797Z,21.35
2022-08-04T14:02:42.743Z,20.67
2022-08-04T14:05:18.716Z,20.27
2022-08-04T14:07:47.015Z,21.05
2022-08-04T14:10:14.231Z,20.36
2022-08-04T14:12:47.640Z,19.84
2022-08-04T14:16:01.373Z,19.32
2022-08-04T14:18:24.772Z,20.22
2022-08-04T14:21:11.392Z,22.89
2022-08-04T14:23:47.378Z,20.67
2022-08-04T14:26:34.076Z,20.63
2022-08-04T14:29:28.283Z,20.92
2022-08-04T14:32:10.661Z,21.31
2022-08-04T14:34:41.261Z,21.54
2022-08-04T14:37:18.587Z,20.94
2022-08-04T14:40:07.963Z,20.34
2022-08-04T14:42:41.637Z,21.26
2022-08-04T14:45:08.620Z,21.05
2022-08-04T14:47:52.643Z,21.67
2022-08-04T14:50:20.119Z,22.28
2022-08-04T14:52:47.136Z,21.68
2022-08-04T14:55:21.618Z,20.32
2022-08-04T14:58:35.108Z,21.27
2022-08-04T15:00:39.436Z,21.91
2022-08-04T15:03:10.175Z,21.46
2022-08-04T15:06:01.544Z,23.15
2022-08-04T15:08:24.615Z,20.77
2022-08-04T15:10:58.928Z,20.06
2022-08-04T15:13:26.418Z,21.18
2022-08-04T15:16:07.355Z,21.61
2022-08-04T15:18:39.089Z,21.66
2022-08-04T15:21:06.161Z,21.25
2022-08-04T15:23:38.556Z,21.84
2022-08-04T15:26:09.509Z,20.98
2022-08-04T15:28:36.627Z,21.17
2022-08-04T15:31:03.817Z,20.78
2022-08-04T15:33:33.748Z,21.40
2022-08-04T15:36:15.608Z,20.66
2022-08-04T15:38:45.653Z,20.85
2022-08-04T15:41:17.239Z,21.34
2022-08-04T15:43:55.782Z,20.75
2022-08-04T15:46:43.054Z,21.67
2022-08-04T15:49:18.464Z,20.65
2022-08-04T15:51:45.245Z,21.08
2022-08-04T15:54:21.097Z,21.71
2022-08-04T15:57:01.629Z,20.85
2022-08-04T15:59:51.095Z,21.00
2022-08-04T16:02:36.326Z,21.15
2022-08-04T16:05:17.614Z,21.33
2022-08-04T16:07:56.879Z,21.33
2022-08-04T16:10:35.349Z,21.49
2022-08-04T16:13:13.847Z,21.68
2022-08-04T16:15:42.181Z,21.74
2022-08-04T16:18:25.340Z,21.16
2022-08-04T16:20:57.817Z,20.87
2022-08-04T16:23:54.103Z,21.42
2022-08-04T16:26:37.747Z,21.45
2022-08-04T16:29:24.634Z,21.07
2022-08-04T16:32:11.071Z,21.78
2022-08-04T16:34:54.486Z,21.97
2022-08-04T16:37:24.146Z,23.18
2022-08-04T16:39:51.942Z,21.68
2022-08-04T16:42:28.301Z,21.41
2022-08-04T16:44:58.990Z,21.52
2022-08-04T16:47:44.250Z,22.08
2022-08-04T16:50:11.456Z,23.22
2022-08-04T16:52:47.859Z,21.96
2022-08-04T16:55:15.420Z,22.48
2022-08-04T16:57:42.888Z,24.21
2022-08-04T17:00:09.967Z,23.05
2022-08-04T17:02:37.112Z,22.64
2022-08-04T17:05:07.238Z,22.94
2022-08-04T17:08:02.203Z,22.14
2022-08-04T17:10:36.518Z,21.85
2022-08-04T17:14:02.757Z,22.87
2022-08-04T17:16:11.662Z,23.28
2022-08-04T17:18:41.216Z,23.32
2022-08-04T17:21:12.459Z,23.92
2022-08-04T17:24:13.106Z,23.59
2022-08-04T17:26:40.053Z,23.06
2022-08-04T17:29:08.256Z,22.79
2022-08-04T17:31:36.426Z,23.47
2022-08-04T17:34:14.128Z,23.93
2022-08-04T17:36:43.904Z,24.08
2022-08-04T17:39:17.248Z,24.10
2022-08-04T17:41:56.079Z,23.99
2022-08-04T17:44:37.420Z,24.36
2022-08-04T17:47:12.625Z,24.78
2022-08-04T17:49:52.651Z,25.12
2022-08-04T17:52:35.908Z,26.03
2022-08-04T17:55:16.304Z,27.24
2022-08-04T17:57:52.270Z,27.91
2022-08-04T18:00:20.019Z,28.29
2022-08-04T18:02:53.647Z,28.69
2022-08-04T18:05:27.095Z,29.36
2022-08-04T18:08:37.720Z,30.00
2022-08-04T18:11:02.055Z,30.39
2022-08-04T18:13:29.516Z,30.69
2022-08-04T18:16:02.595Z,30.79
2022-08-04T18:18:29.999Z,30.88
2022-08-04T18:20:59.858Z,31.22
2022-08-04T18:23:31.350Z,31.74
2022-08-04T18:26:01.787Z,31.84
2022-08-04T18:28:30.723Z,31.85
2022-08-04T18:31:00.667Z,32.61
2022-08-04T18:33:39.894Z,32.80
2022-08-04T18:36:35.231Z,32.74
2022-08-04T18:38:59.072Z,32.64
2022-08-04T18:41:27.221Z,33.04
2022-08-04T18:43:57.324Z,33.34
2022-08-04T18:46:26.999Z,33.56
2022-08-04T18:48:54.368Z,33.91
2022-08-04T18:51:24.935Z,33.79
2022-08-04T18:53:58.563Z,33.77
2022-08-04T18:56:32.405Z,34.07
2022-08-04T18:59:00.677Z,33.91
2022-08-04T19:01:29.674Z,34.30
2022-08-04T19:04:33.362Z,34.12
2022-08-04T19:07:23.309Z,34.53
2022-08-04T19:09:52.153Z,33.94
2022-08-04T19:12:26.332Z,34.50
2022-08-04T19:14:58.044Z,34.79
2022-08-04T19:20:24.173Z,35.14
2022-08-04T19:24:28.950Z,34.88
2022-08-04T19:25:59.606Z,34.70
2022-08-04T19:28:28.157Z,34.66
2022-08-04T19:30:57.568Z,35.11
2022-08-04T19:33:25.287Z,35.48
2022-08-04T19:35:52.545Z,36.14
2022-08-04T19:38:20.854Z,37.03
2022-08-04T19:40:52.624Z,36.32
2022-08-04T19:43:23.061Z,36.09
2022-08-04T19:45:55.146Z,35.79
2022-08-04T19:48:26.333Z,36.67
2022-08-04T19:50:55.856Z,36.84
2022-08-04T19:53:36.957Z,36.98
2022-08-04T19:56:05.420Z,37.12
2022-08-04T19:58:32.711Z,37.91
2022-08-04T20:00:59.461Z,38.11
2022-08-04T20:04:08.839Z,37.84
2022-08-04T20:06:14.373Z,37.35
2022-08-04T20:08:48.057Z,38.16
2022-08-04T20:11:17.275Z,38.38
2022-08-04T20:13:54.652Z,38.14
2022-08-04T20:16:29.481Z,38.49
2022-08-04T20:19:02.750Z,38.83
2022-08-04T20:21:54.315Z,38.89
2022-08-04T20:24:39.170Z,38.41
2022-08-04T20:27:15.055Z,38.45
2022-08-04T20:29:50.466Z,38.08
2022-08-04T20:32:21.839Z,37.64
2022-08-04T20:34:50.381Z,37.77
2022-08-04T20:37:18.623Z,37.25
2022-08-04T20:39:54.943Z,37.90
2022-08-04T20:42:27.519Z,38.37
2022-08-04T20:45:01.284Z,38.42
2022-08-04T20:47:35.078Z,39.01
2022-08-04T20:50:04.422Z,38.51
2022-08-04T20:52:33.207Z,37.88
2022-08-04T20:55:04.005Z,38.31
2022-08-04T20:57:47.995Z,38.81
2022-08-04T21:00:15.847Z,38.56
2022-08-04T21:02:44.400Z,38.37
2022-08-04T21:05:11.304Z,38.71
2022-08-04T21:07:41.833Z,39.31
2022-08-04T21:10:15.741Z,38.89
2022-08-04T21:12:43.786Z,38.91
2022-08-04T21:15:24.603Z,38.86
2022-08-04T21:17:58.244Z,39.92
2022-08-04T21:20:31.561Z,39.72
2022-08-04T21:23:02.327Z,40.83
2022-08-04T21:25:30.833Z,40.86
2022-08-04T21:28:04.096Z,40.08
2022-08-04T21:30:37.041Z,40.06
2022-08-04T21:33:18.626Z,40.09
2022-08-04T21:35:46.858Z,40.22
2022-08-04T21:38:17.663Z,40.93
2022-08-04T21:40:54.720Z,40.74
2022-08-04T21:43:23.753Z,40.24
2022-08-04T21:45:55.956Z,40.76
2022-08-04T21:48:23.406Z,40.50
2022-08-04T21:50:54.659Z,40.97
2022-08-04T21:53:21.429Z,40.97
2022-08-04T21:56:05.429Z,40.92
2022-08-04T21:58:34.498Z,40.97
2022-08-04T22:01:06.016Z,41.48
2022-08-04T22:03:52.263Z,41.44
2022-08-04T22:06:20.500Z,42.08
2022-08-04T22:08:55.163Z,42.27
2022-08-04T22:11:26.291Z,41.92
2022-08-04T22:14:11.950Z,41.69
2022-08-04T22:16:39.901Z,42.12
2022-08-04T22:19:07.235Z,42.38
2022-08-04T22:21:39.120Z,42.62
2022-08-04T22:24:13.776Z,42.99
2022-08-04T22:26:41.648Z,43.76
2022-08-04T22:29:14.510Z,43.17
2022-08-04T22:31:55.680Z,42.75
2022-08-04T22:34:23.831Z,42.88
2022-08-04T22:36:53.890Z,43.57
2022-08-04T22:39:23.477Z,43.63
2022-08-04T22:42:04.486Z,43.31
2022-08-04T22:44:33.532Z,43.86
2022-08-04T22:47:00.725Z,43.70
2022-08-04T22:49:31.478Z,44.08
2022-08-04T22:51:58.903Z,43.58
2022-08-04T22:54:28.503Z,43.35
2022-08-04T22:56:56.774Z,43.04
2022-08-04T22:59:23.851Z,43.59
2022-08-04T23:01:58.772Z,44.23
2022-08-04T23:04:29.056Z,43.90
2022-08-04T23:06:56.003Z,43.66
2022-08-04T23:09:27.024Z,44.05
2022-08-04T23:12:25.061Z,43.42
2022-08-04T23:14:52.450Z,44.83
2022-08-04T23:17:19.404Z,44.36
2022-08-04T23:19:58.111Z,43.80
2022-08-04T23:22:41.649Z,44.44
2022-08-04T23:25:16.385Z,44.37
2022-08-04T23:27:50.500Z,45.14
2022-08-04T23:30:19.609Z,45.13
2022-08-04T23:32:46.682Z,45.12
2022-08-04T23:35:15.096Z,45.39
2022-08-04T23:37:56.269Z,44.71
2022-08-04T23:40:34.116Z,44.26
2022-08-04T23:43:17.611Z,44.54
2022-08-04T23:46:08.295Z,44.70
2022-08-04T23:48:32.717Z,44.69
2022-08-04T23:51:03.506Z,45.43
2022-08-04T23:53:41.566Z,45.30
2022-08-04T23:56:19.946Z,44.87
2022-08-04T23:58:46.738Z,44.67
